Tonos — V7EF2 — position and weather

sailwx.info

Track history (hours):
 
Tides and Currents Weather Stations Pressure Air Temp Water Temp Dewpoint Dewpoint Depression Visibility Wind Speed Wind Dir Waves Ship Positions

Tonos

Last reported at 2018-May-13 13:02 UTC. Time now 2018-May-22 21:36 UTC.
Position N 16°05' E 069°25'.
Warning: this ship's position is 9 days out of date.

Length 276 m; draft 15.4 m.

Type: Tanker. MMSI: 538006541.

Date/timePositionNaut miles runAvg speedWind from/ knotsBaromVisibWave heightAir tempDewpointWater temp
2018-May-13 13:02N 16°05' E 069°25'112.6
2018-May-13 12:59N 16°06' E 069°24'612.3
2018-May-13 12:29N 16°11' E 069°21'612.5
2018-May-13 11:59N 16°16' E 069°17'612.6
2018-May-13 11:29N 16°21' E 069°13'15612.3
2018-May-12 22:50N 18°28' E 067°39'512.0
2018-May-12 22:26N 18°32' E 067°36'812.0
2018-May-12 21:46N 18°39' E 067°31'8312.0
2018-May-12 14:51N 19°46' E 066°41'511.9
2018-May-12 14:28N 19°50' E 066°38'511.6
2018-May-12 14:00N 19°55' E 066°35'611.8
2018-May-12 13:30N 19°60' E 066°32'  
2018-May-05 04:25N 20°28' E 066°11'512.3
2018-May-05 04:00N 20°24' E 066°14'4213.1
2018-May-05 00:49N 19°50' E 066°39'413.2
2018-May-05 00:30N 19°46' E 066°42'1013.0
2018-May-04 23:42N 19°37' E 066°48'413.0
2018-May-04 23:25N 19°35' E 066°50'613.2
2018-May-04 22:56N 19°29' E 066°54'1913.2
2018-May-04 21:32N 19°14' E 067°05'113.0
2018-May-04 21:29N 19°14' E 067°06'712.9
2018-May-04 20:58N 19°08' E 067°10'612.7
2018-May-04 20:29N 19°03' E 067°13'612.6
2018-May-04 19:58N 18°58' E 067°17'612.5
2018-May-04 19:30N 18°53' E 067°21'612.7
2018-May-04 19:00N 18°48' E 067°25'612.8
2018-May-04 18:30N 18°43' E 067°29'712.8
2018-May-04 17:59N 18°37' E 067°33'612.8
2018-May-04 17:30N 18°32' E 067°36'612.7
2018-May-04 17:00N 18°27' E 067°40'612.7
2018-May-04 16:30N 18°22' E 067°44'712.9
2018-May-04 15:59N 18°16' E 067°48'612.8
2018-May-04 15:28N 18°11' E 067°52'612.8
2018-May-04 14:59N 18°06' E 067°56'613.0
2018-May-04 14:30N 18°01' E 067°60'1 0.8
2018-May-04 13:40N 18°01' E 068°00'0 1.5
2018-May-04 13:30N 18°01' E 068°00'5 9.2
2018-May-04 12:58N 17°57' E 068°04'612.7
2018-May-04 12:30N 17°53' E 068°08'712.6
2018-May-04 11:59N 17°47' E 068°12'612.6
2018-May-04 11:30N 17°42' E 068°15'612.6
2018-May-04 11:00N 17°37' E 068°19'612.6
2018-May-04 10:30N 17°31' E 068°22'612.1
2018-May-04 09:59N 17°26' E 068°25'1812.1
2018-May-04 08:32N 17°12' E 068°36'412.2
2018-May-04 08:13N 17°09' E 068°38'5012.1
2018-May-04 04:06N 16°27' E 069°08'212.3
2018-May-04 03:58N 16°26' E 069°09'912.4
2018-May-04 03:15N 16°19' E 069°14'312.7
2018-May-04 03:00N 16°16' E 069°16'2712.8
2018-May-04 00:52N 15°54' E 069°32'2512.8
2018-May-03 22:55N 15°34' E 069°47'3312.7
2018-May-03 20:17N 15°06' E 070°07'612.6
2018-May-03 19:48N 15°01' E 070°11'412.5
2018-May-03 19:30N 14°58' E 070°13'612.3
2018-May-03 19:00N 14°53' E 070°17'612.6
2018-May-03 18:30N 14°48' E 070°21'912.9
2018-May-03 17:46N 14°40' E 070°26'412.6
2018-May-03 17:28N 14°37' E 070°28'612.4
2018-May-03 16:59N 14°32' E 070°32'612.6
2018-May-03 16:30N 14°27' E 070°36'712.6
2018-May-03 15:59N 14°22' E 070°39'  
Track history (hours):
 
Tides and Currents Weather Stations Pressure Air Temp Water Temp Dewpoint Dewpoint Depression Visibility Wind Speed Wind Dir Waves Ship Positions

Tonos

Last reported at 2018-May-13 13:02 UTC. Time now 2018-May-22 21:36 UTC.
Position N 16°05' E 069°25'.
Warning: this ship's position is 9 days out of date.

Length 276 m; draft 15.4 m.

Type: Tanker. MMSI: 538006541.

Date/timePositionNaut miles runAvg speedWind from/ knotsBaromVisibWave heightAir tempDewpointWater temp
2018-May-13 13:02N 16°05' E 069°25'112.6
2018-May-13 12:59N 16°06' E 069°24'612.3
2018-May-13 12:29N 16°11' E 069°21'612.5
2018-May-13 11:59N 16°16' E 069°17'612.6
2018-May-13 11:29N 16°21' E 069°13'15612.3
2018-May-12 22:50N 18°28' E 067°39'512.0
2018-May-12 22:26N 18°32' E 067°36'812.0
2018-May-12 21:46N 18°39' E 067°31'8312.0
2018-May-12 14:51N 19°46' E 066°41'511.9
2018-May-12 14:28N 19°50' E 066°38'511.6
2018-May-12 14:00N 19°55' E 066°35'611.8
2018-May-12 13:30N 19°60' E 066°32'  
2018-May-05 04:25N 20°28' E 066°11'512.3
2018-May-05 04:00N 20°24' E 066°14'4213.1
2018-May-05 00:49N 19°50' E 066°39'413.2
2018-May-05 00:30N 19°46' E 066°42'1013.0
2018-May-04 23:42N 19°37' E 066°48'413.0
2018-May-04 23:25N 19°35' E 066°50'613.2
2018-May-04 22:56N 19°29' E 066°54'1913.2
2018-May-04 21:32N 19°14' E 067°05'113.0
2018-May-04 21:29N 19°14' E 067°06'712.9
2018-May-04 20:58N 19°08' E 067°10'612.7
2018-May-04 20:29N 19°03' E 067°13'612.6
2018-May-04 19:58N 18°58' E 067°17'612.5
2018-May-04 19:30N 18°53' E 067°21'612.7
2018-May-04 19:00N 18°48' E 067°25'612.8
2018-May-04 18:30N 18°43' E 067°29'712.8
2018-May-04 17:59N 18°37' E 067°33'612.8
2018-May-04 17:30N 18°32' E 067°36'612.7
2018-May-04 17:00N 18°27' E 067°40'612.7
2018-May-04 16:30N 18°22' E 067°44'712.9
2018-May-04 15:59N 18°16' E 067°48'612.8
2018-May-04 15:28N 18°11' E 067°52'612.8
2018-May-04 14:59N 18°06' E 067°56'613.0
2018-May-04 14:30N 18°01' E 067°60'1 0.8
2018-May-04 13:40N 18°01' E 068°00'0 1.5
2018-May-04 13:30N 18°01' E 068°00'5 9.2
2018-May-04 12:58N 17°57' E 068°04'612.7
2018-May-04 12:30N 17°53' E 068°08'712.6
2018-May-04 11:59N 17°47' E 068°12'612.6
2018-May-04 11:30N 17°42' E 068°15'612.6
2018-May-04 11:00N 17°37' E 068°19'612.6
2018-May-04 10:30N 17°31' E 068°22'612.1
2018-May-04 09:59N 17°26' E 068°25'1812.1
2018-May-04 08:32N 17°12' E 068°36'412.2
2018-May-04 08:13N 17°09' E 068°38'5012.1
2018-May-04 04:06N 16°27' E 069°08'212.3
2018-May-04 03:58N 16°26' E 069°09'912.4
2018-May-04 03:15N 16°19' E 069°14'312.7
2018-May-04 03:00N 16°16' E 069°16'2712.8
2018-May-04 00:52N 15°54' E 069°32'2512.8
2018-May-03 22:55N 15°34' E 069°47'3312.7
2018-May-03 20:17N 15°06' E 070°07'612.6
2018-May-03 19:48N 15°01' E 070°11'412.5
2018-May-03 19:30N 14°58' E 070°13'612.3
2018-May-03 19:00N 14°53' E 070°17'612.6
2018-May-03 18:30N 14°48' E 070°21'912.9
2018-May-03 17:46N 14°40' E 070°26'412.6
2018-May-03 17:28N 14°37' E 070°28'612.4
2018-May-03 16:59N 14°32' E 070°32'612.6
2018-May-03 16:30N 14°27' E 070°36'712.6
2018-May-03 15:59N 14°22' E 070°39'  

Dump ship's entire track history